sensor_id;sensor_type;location;lat;lon;timestamp;temperature;humidity
48454;DHT22;34261;55.678;12.464;2022-11-15T00:01:44;11.50;99.90
48454;DHT22;34261;55.678;12.464;2022-11-15T00:04:09;11.50;99.90
48454;DHT22;34261;55.678;12.464;2022-11-15T00:06:35;11.60;99.90
48454;DHT22;34261;55.678;12.464;2022-11-15T00:09:02;11.60;99.90
48454;DHT22;34261;55.678;12.464;2022-11-15T00:11:27;11.60;99.90
48454;DHT22;34261;55.678;12.464;2022-11-15T00:13:57;11.60;99.90
48454;DHT22;34261;55.678;12.464;2022-11-15T00:16:23;11.60;99.90
48454;DHT22;34261;55.678;12.464;2022-11-15T00:18:48;11.50;99.90
48454;DHT22;34261;55.678;12.464;2022-11-15T00:21:14;11.60;99.90
48454;DHT22;34261;55.678;12.464;2022-11-15T00:23:43;11.60;99.90
48454;DHT22;34261;55.678;12.464;2022-11-15T00:26:13;11.60;99.90
48454;DHT22;34261;55.678;12.464;2022-11-15T00:28:38;11.60;99.90
48454;DHT22;34261;55.678;12.464;2022-11-15T00:31:05;11.50;99.90
48454;DHT22;34261;55.678;12.464;2022-11-15T00:33:31;11.50;99.90
48454;DHT22;34261;55.678;12.464;2022-11-15T00:36:00;11.50;99.90
48454;DHT22;34261;55.678;12.464;2022-11-15T00:38:30;11.50;99.90
48454;DHT22;34261;55.678;12.464;2022-11-15T00:40:55;11.50;99.90
48454;DHT22;34261;55.678;12.464;2022-11-15T00:43:21;11.50;99.90
48454;DHT22;34261;55.678;12.464;2022-11-15T00:45:46;11.50;99.90
48454;DHT22;34261;55.678;12.464;2022-11-15T00:48:12;11.50;99.90
48454;DHT22;34261;55.678;12.464;2022-11-15T00:50:37;11.50;99.90
48454;DHT22;34261;55.678;12.464;2022-11-15T00:53:03;11.50;99.90
48454;DHT22;34261;55.678;12.464;2022-11-15T00:55:28;11.50;99.90
48454;DHT22;34261;55.678;12.464;2022-11-15T00:57:54;11.50;99.90
48454;DHT22;34261;55.678;12.464;2022-11-15T01:00:19;11.50;99.90
48454;DHT22;34261;55.678;12.464;2022-11-15T01:02:45;11.50;99.90
48454;DHT22;34261;55.678;12.464;2022-11-15T01:05:10;11.50;99.90
48454;DHT22;34261;55.678;12.464;2022-11-15T01:07:36;11.50;99.90
48454;DHT22;34261;55.678;12.464;2022-11-15T01:10:01;11.50;99.90
48454;DHT22;34261;55.678;12.464;2022-11-15T01:12:27;11.50;99.90
48454;DHT22;34261;55.678;12.464;2022-11-15T01:14:53;11.60;99.90
48454;DHT22;34261;55.678;12.464;2022-11-15T01:17:18;11.60;99.90
48454;DHT22;34261;55.678;12.464;2022-11-15T01:19:44;11.60;99.90
48454;DHT22;34261;55.678;12.464;2022-11-15T01:22:10;11.60;99.90
48454;DHT22;34261;55.678;12.464;2022-11-15T01:24:35;11.60;99.90
48454;DHT22;34261;55.678;12.464;2022-11-15T01:27:01;11.70;99.90
48454;DHT22;34261;55.678;12.464;2022-11-15T01:29:26;11.70;99.90
48454;DHT22;34261;55.678;12.464;2022-11-15T01:31:53;11.60;99.90
48454;DHT22;34261;55.678;12.464;2022-11-15T01:34:19;11.60;99.90
48454;DHT22;34261;55.678;12.464;2022-11-15T01:36:46;11.60;99.90
48454;DHT22;34261;55.678;12.464;2022-11-15T01:39:11;11.50;99.90
48454;DHT22;34261;55.678;12.464;2022-11-15T01:41:37;11.50;99.90
48454;DHT22;34261;55.678;12.464;2022-11-15T01:46:47;11.50;99.90
48454;DHT22;34261;55.678;12.464;2022-11-15T01:49:17;11.40;99.90
48454;DHT22;34261;55.678;12.464;2022-11-15T01:51:44;11.40;99.90
48454;DHT22;34261;55.678;12.464;2022-11-15T01:54:12;11.40;99.90
48454;DHT22;34261;55.678;12.464;2022-11-15T01:56:42;11.50;99.90
48454;DHT22;34261;55.678;12.464;2022-11-15T01:59:09;11.40;99.90
48454;DHT22;34261;55.678;12.464;2022-11-15T02:01:35;11.40;99.90
48454;DHT22;34261;55.678;12.464;2022-11-15T02:04:02;11.40;99.90
48454;DHT22;34261;55.678;12.464;2022-11-15T02:06:29;11.50;99.90
48454;DHT22;34261;55.678;12.464;2022-11-15T02:08:54;11.40;99.90
48454;DHT22;34261;55.678;12.464;2022-11-15T02:11:21;11.40;99.90
48454;DHT22;34261;55.678;12.464;2022-11-15T02:13:47;11.50;99.90
48454;DHT22;34261;55.678;12.464;2022-11-15T02:18:46;11.50;99.90
48454;DHT22;34261;55.678;12.464;2022-11-15T02:29:13;11.50;99.90
48454;DHT22;34261;55.678;12.464;2022-11-15T02:31:51;11.50;99.90
48454;DHT22;34261;55.678;12.464;2022-11-15T02:34:35;11.50;99.90
48454;DHT22;34261;55.678;12.464;2022-11-15T02:37:11;11.40;99.90
48454;DHT22;34261;55.678;12.464;2022-11-15T02:39:46;11.50;99.90
48454;DHT22;34261;55.678;12.464;2022-11-15T02:42:14;11.50;99.90
48454;DHT22;34261;55.678;12.464;2022-11-15T02:45:01;11.50;99.90
48454;DHT22;34261;55.678;12.464;2022-11-15T02:47:29;11.50;99.90
48454;DHT22;34261;55.678;12.464;2022-11-15T02:50:00;11.50;99.90
48454;DHT22;34261;55.678;12.464;2022-11-15T02:52:27;11.40;99.90
48454;DHT22;34261;55.678;12.464;2022-11-15T02:54:54;11.50;99.90
48454;DHT22;34261;55.678;12.464;2022-11-15T02:57:22;11.40;99.90
48454;DHT22;34261;55.678;12.464;2022-11-15T03:04:55;11.40;99.90
48454;DHT22;34261;55.678;12.464;2022-11-15T03:07:45;11.50;99.90
48454;DHT22;34261;55.678;12.464;2022-11-15T03:12:44;11.40;99.90
48454;DHT22;34261;55.678;12.464;2022-11-15T03:15:17;11.30;99.90
48454;DHT22;34261;55.678;12.464;2022-11-15T03:17:45;11.40;99.90
48454;DHT22;34261;55.678;12.464;2022-11-15T03:20:14;11.40;99.90
48454;DHT22;34261;55.678;12.464;2022-11-15T03:22:42;11.30;99.90
48454;DHT22;34261;55.678;12.464;2022-11-15T03:25:08;11.30;99.90
48454;DHT22;34261;55.678;12.464;2022-11-15T03:27:38;11.30;99.90
48454;DHT22;34261;55.678;12.464;2022-11-15T03:30:06;11.30;99.90
48454;DHT22;34261;55.678;12.464;2022-11-15T03:32:34;11.30;99.90
48454;DHT22;34261;55.678;12.464;2022-11-15T03:35:03;11.30;99.90
48454;DHT22;34261;55.678;12.464;2022-11-15T03:37:34;11.30;99.90
48454;DHT22;34261;55.678;12.464;2022-11-15T03:40:01;11.30;99.90
48454;DHT22;34261;55.678;12.464;2022-11-15T03:42:29;11.30;99.90
48454;DHT22;34261;55.678;12.464;2022-11-15T03:44:59;11.30;99.90
48454;DHT22;34261;55.678;12.464;2022-11-15T03:47:40;11.30;99.90
48454;DHT22;34261;55.678;12.464;2022-11-15T03:50:08;11.30;99.90
48454;DHT22;34261;55.678;12.464;2022-11-15T03:52:34;11.30;99.90
48454;DHT22;34261;55.678;12.464;2022-11-15T03:55:00;11.30;99.90
48454;DHT22;34261;55.678;12.464;2022-11-15T03:57:27;11.30;99.90
48454;DHT22;34261;55.678;12.464;2022-11-15T03:59:52;11.30;99.90
48454;DHT22;34261;55.678;12.464;2022-11-15T04:02:17;11.20;99.90
48454;DHT22;34261;55.678;12.464;2022-11-15T04:04:43;11.30;99.90
48454;DHT22;34261;55.678;12.464;2022-11-15T04:07:08;11.30;99.90
48454;DHT22;34261;55.678;12.464;2022-11-15T04:09:34;11.30;99.90
48454;DHT22;34261;55.678;12.464;2022-11-15T04:12:19;11.30;99.90
48454;DHT22;34261;55.678;12.464;2022-11-15T04:15:09;11.30;99.90
48454;DHT22;34261;55.678;12.464;2022-11-15T04:17:35;11.30;99.90
48454;DHT22;34261;55.678;12.464;2022-11-15T04:20:02;11.30;99.90
48454;DHT22;34261;55.678;12.464;2022-11-15T04:22:46;11.20;99.90
48454;DHT22;34261;55.678;12.464;2022-11-15T04:25:30;11.30;99.90
48454;DHT22;34261;55.678;12.464;2022-11-15T04:27:56;11.30;99.90
48454;DHT22;34261;55.678;12.464;2022-11-15T04:30:21;11.30;99.90
48454;DHT22;34261;55.678;12.464;2022-11-15T04:32:47;11.30;99.90
48454;DHT22;34261;55.678;12.464;2022-11-15T04:35:12;11.30;99.90
48454;DHT22;34261;55.678;12.464;2022-11-15T04:37:37;11.30;99.90
48454;DHT22;34261;55.678;12.464;2022-11-15T04:40:03;11.30;99.90
48454;DHT22;34261;55.678;12.464;2022-11-15T04:42:29;11.30;99.90
48454;DHT22;34261;55.678;12.464;2022-11-15T04:44:54;11.30;99.90
48454;DHT22;34261;55.678;12.464;2022-11-15T04:47:21;11.30;99.90
48454;DHT22;34261;55.678;12.464;2022-11-15T04:49:46;11.30;99.90
48454;DHT22;34261;55.678;12.464;2022-11-15T04:52:11;11.20;99.90
48454;DHT22;34261;55.678;12.464;2022-11-15T04:54:37;11.20;99.90
48454;DHT22;34261;55.678;12.464;2022-11-15T04:57:02;11.30;99.90
48454;DHT22;34261;55.678;12.464;2022-11-15T04:59:28;11.30;99.90
48454;DHT22;34261;55.678;12.464;2022-11-15T05:01:53;11.20;99.90
48454;DHT22;34261;55.678;12.464;2022-11-15T05:04:19;11.30;99.90
48454;DHT22;34261;55.678;12.464;2022-11-15T05:06:45;11.30;99.90
48454;DHT22;34261;55.678;12.464;2022-11-15T05:09:11;11.30;99.90
48454;DHT22;34261;55.678;12.464;2022-11-15T05:11:38;11.30;99.90
48454;DHT22;34261;55.678;12.464;2022-11-15T05:14:03;11.20;99.90
48454;DHT22;34261;55.678;12.464;2022-11-15T05:16:29;11.30;99.90
48454;DHT22;34261;55.678;12.464;2022-11-15T05:18:54;11.30;99.90
48454;DHT22;34261;55.678;12.464;2022-11-15T05:21:20;11.30;99.90
48454;DHT22;34261;55.678;12.464;2022-11-15T05:23:46;11.30;99.90
48454;DHT22;34261;55.678;12.464;2022-11-15T05:26:12;11.30;99.90
48454;DHT22;34261;55.678;12.464;2022-11-15T05:28:37;11.30;99.90
48454;DHT22;34261;55.678;12.464;2022-11-15T05:31:04;11.30;99.90
48454;DHT22;34261;55.678;12.464;2022-11-15T05:33:30;11.30;99.90
48454;DHT22;34261;55.678;12.464;2022-11-15T05:36:00;11.30;99.90
48454;DHT22;34261;55.678;12.464;2022-11-15T05:38:27;11.30;99.90
48454;DHT22;34261;55.678;12.464;2022-11-15T05:40:53;11.30;99.90
48454;DHT22;34261;55.678;12.464;2022-11-15T05:43:19;11.30;99.90
48454;DHT22;34261;55.678;12.464;2022-11-15T05:45:44;11.40;99.90
48454;DHT22;34261;55.678;12.464;2022-11-15T05:48:10;11.40;99.90
48454;DHT22;34261;55.678;12.464;2022-11-15T05:50:36;11.30;99.90
48454;DHT22;34261;55.678;12.464;2022-11-15T05:53:03;11.30;99.90
48454;DHT22;34261;55.678;12.464;2022-11-15T05:55:29;11.40;99.90
48454;DHT22;34261;55.678;12.464;2022-11-15T05:57:55;11.40;99.90
48454;DHT22;34261;55.678;12.464;2022-11-15T06:00:21;11.40;99.90
48454;DHT22;34261;55.678;12.464;2022-11-15T06:02:46;11.40;99.90
48454;DHT22;34261;55.678;12.464;2022-11-15T06:05:12;11.40;99.90
48454;DHT22;34261;55.678;12.464;2022-11-15T06:07:37;11.40;99.90
48454;DHT22;34261;55.678;12.464;2022-11-15T06:10:03;11.40;99.90
48454;DHT22;34261;55.678;12.464;2022-11-15T06:12:28;11.50;99.90
48454;DHT22;34261;55.678;12.464;2022-11-15T06:14:54;11.50;99.90
48454;DHT22;34261;55.678;12.464;2022-11-15T06:17:19;11.50;99.90
48454;DHT22;34261;55.678;12.464;2022-11-15T06:19:45;11.50;99.90
48454;DHT22;34261;55.678;12.464;2022-11-15T06:22:10;11.50;99.90
48454;DHT22;34261;55.678;12.464;2022-11-15T06:24:35;11.50;99.90
48454;DHT22;34261;55.678;12.464;2022-11-15T06:27:01;11.50;99.90
48454;DHT22;34261;55.678;12.464;2022-11-15T06:29:26;11.50;99.90
48454;DHT22;34261;55.678;12.464;2022-11-15T06:31:52;11.50;99.90
48454;DHT22;34261;55.678;12.464;2022-11-15T06:34:18;11.50;99.90
48454;DHT22;34261;55.678;12.464;2022-11-15T06:36:43;11.50;99.90
48454;DHT22;34261;55.678;12.464;2022-11-15T06:39:09;11.50;99.90
48454;DHT22;34261;55.678;12.464;2022-11-15T06:41:34;11.50;99.90
48454;DHT22;34261;55.678;12.464;2022-11-15T06:44:00;11.50;99.90
48454;DHT22;34261;55.678;12.464;2022-11-15T06:46:26;11.50;99.90
48454;DHT22;34261;55.678;12.464;2022-11-15T06:48:51;11.50;99.90
48454;DHT22;34261;55.678;12.464;2022-11-15T06:51:17;11.50;99.90
48454;DHT22;34261;55.678;12.464;2022-11-15T06:53:42;11.50;99.90
48454;DHT22;34261;55.678;12.464;2022-11-15T06:56:08;11.50;99.90
48454;DHT22;34261;55.678;12.464;2022-11-15T06:58:34;11.50;99.90
48454;DHT22;34261;55.678;12.464;2022-11-15T07:01:01;11.40;99.90
48454;DHT22;34261;55.678;12.464;2022-11-15T07:03:26;11.40;99.90
48454;DHT22;34261;55.678;12.464;2022-11-15T07:05:53;11.50;99.90
48454;DHT22;34261;55.678;12.464;2022-11-15T07:08:19;11.50;99.90
48454;DHT22;34261;55.678;12.464;2022-11-15T07:10:45;11.50;99.90
48454;DHT22;34261;55.678;12.464;2022-11-15T07:13:10;11.50;99.90
48454;DHT22;34261;55.678;12.464;2022-11-15T07:15:36;11.50;99.90
48454;DHT22;34261;55.678;12.464;2022-11-15T07:18:01;11.50;99.90
48454;DHT22;34261;55.678;12.464;2022-11-15T07:20:26;11.60;99.90
48454;DHT22;34261;55.678;12.464;2022-11-15T07:22:58;11.60;99.90
48454;DHT22;34261;55.678;12.464;2022-11-15T07:25:24;11.60;99.90
48454;DHT22;34261;55.678;12.464;2022-11-15T07:27:59;11.50;99.90
48454;DHT22;34261;55.678;12.464;2022-11-15T07:30:24;11.60;99.90
48454;DHT22;34261;55.678;12.464;2022-11-15T07:32:57;11.60;99.90
48454;DHT22;34261;55.678;12.464;2022-11-15T07:35:23;11.60;99.90
48454;DHT22;34261;55.678;12.464;2022-11-15T07:37:54;11.60;99.90
48454;DHT22;34261;55.678;12.464;2022-11-15T07:40:19;11.70;99.90
48454;DHT22;34261;55.678;12.464;2022-11-15T07:42:45;11.70;99.90
48454;DHT22;34261;55.678;12.464;2022-11-15T07:45:21;11.60;99.90
48454;DHT22;34261;55.678;12.464;2022-11-15T07:47:48;11.60;99.90
48454;DHT22;34261;55.678;12.464;2022-11-15T07:50:13;11.50;99.90
48454;DHT22;34261;55.678;12.464;2022-11-15T07:52:39;11.50;99.90
48454;DHT22;34261;55.678;12.464;2022-11-15T07:55:04;11.60;99.90
48454;DHT22;34261;55.678;12.464;2022-11-15T07:57:30;11.60;99.90
48454;DHT22;34261;55.678;12.464;2022-11-15T07:59:55;11.60;99.90
48454;DHT22;34261;55.678;12.464;2022-11-15T08:02:21;11.60;99.90
48454;DHT22;34261;55.678;12.464;2022-11-15T08:04:48;11.60;99.90
48454;DHT22;34261;55.678;12.464;2022-11-15T08:07:14;11.60;99.90
48454;DHT22;34261;55.678;12.464;2022-11-15T08:09:39;11.50;99.90
48454;DHT22;34261;55.678;12.464;2022-11-15T08:12:05;11.40;99.90
48454;DHT22;34261;55.678;12.464;2022-11-15T08:14:31;11.40;99.90
48454;DHT22;34261;55.678;12.464;2022-11-15T08:16:56;11.40;99.90
48454;DHT22;34261;55.678;12.464;2022-11-15T08:19:21;11.40;99.90
48454;DHT22;34261;55.678;12.464;2022-11-15T08:21:47;11.40;99.90
48454;DHT22;34261;55.678;12.464;2022-11-15T08:24:13;11.40;99.90
48454;DHT22;34261;55.678;12.464;2022-11-15T08:26:39;11.40;99.90
48454;DHT22;34261;55.678;12.464;2022-11-15T08:29:05;11.40;99.90
48454;DHT22;34261;55.678;12.464;2022-11-15T08:31:31;11.40;99.90
48454;DHT22;34261;55.678;12.464;2022-11-15T08:33:56;11.40;99.90
48454;DHT22;34261;55.678;12.464;2022-11-15T08:36:22;11.30;99.90
48454;DHT22;34261;55.678;12.464;2022-11-15T08:38:47;11.30;99.90
48454;DHT22;34261;55.678;12.464;2022-11-15T08:41:13;11.30;99.90
48454;DHT22;34261;55.678;12.464;2022-11-15T08:43:41;11.30;99.90
48454;DHT22;34261;55.678;12.464;2022-11-15T08:46:08;11.30;99.90
48454;DHT22;34261;55.678;12.464;2022-11-15T08:48:36;11.40;99.90
48454;DHT22;34261;55.678;12.464;2022-11-15T08:51:01;11.30;99.90
48454;DHT22;34261;55.678;12.464;2022-11-15T08:53:28;11.30;99.90
48454;DHT22;34261;55.678;12.464;2022-11-15T08:55:53;11.30;99.90
48454;DHT22;34261;55.678;12.464;2022-11-15T08:58:19;11.40;99.90
48454;DHT22;34261;55.678;12.464;2022-11-15T09:00:44;11.30;99.90
48454;DHT22;34261;55.678;12.464;2022-11-15T09:03:10;11.30;99.90
48454;DHT22;34261;55.678;12.464;2022-11-15T09:05:36;11.30;99.90
48454;DHT22;34261;55.678;12.464;2022-11-15T09:08:02;11.30;99.90
48454;DHT22;34261;55.678;12.464;2022-11-15T09:10:28;11.30;99.90
48454;DHT22;34261;55.678;12.464;2022-11-15T09:12:54;11.40;99.90
48454;DHT22;34261;55.678;12.464;2022-11-15T09:15:19;11.40;99.90
48454;DHT22;34261;55.678;12.464;2022-11-15T09:17:45;11.40;99.90
48454;DHT22;34261;55.678;12.464;2022-11-15T09:20:10;11.40;99.90
48454;DHT22;34261;55.678;12.464;2022-11-15T09:22:37;11.40;99.90
48454;DHT22;34261;55.678;12.464;2022-11-15T09:25:04;11.40;99.90
48454;DHT22;34261;55.678;12.464;2022-11-15T09:27:29;11.40;99.90
48454;DHT22;34261;55.678;12.464;2022-11-15T09:29:55;11.40;99.90
48454;DHT22;34261;55.678;12.464;2022-11-15T09:32:21;11.50;99.90
48454;DHT22;34261;55.678;12.464;2022-11-15T09:34:48;11.50;99.90
48454;DHT22;34261;55.678;12.464;2022-11-15T09:37:14;11.40;99.90
48454;DHT22;34261;55.678;12.464;2022-11-15T09:39:41;11.50;99.90
48454;DHT22;34261;55.678;12.464;2022-11-15T09:42:10;11.40;99.90
48454;DHT22;34261;55.678;12.464;2022-11-15T09:44:45;11.40;99.90
48454;DHT22;34261;55.678;12.464;2022-11-15T09:47:23;11.40;99.90
48454;DHT22;34261;55.678;12.464;2022-11-15T09:49:57;11.40;99.90
48454;DHT22;34261;55.678;12.464;2022-11-15T09:52:23;11.40;99.90
48454;DHT22;34261;55.678;12.464;2022-11-15T09:54:50;11.30;99.90
48454;DHT22;34261;55.678;12.464;2022-11-15T09:57:26;11.30;99.90
48454;DHT22;34261;55.678;12.464;2022-11-15T10:02:42;11.30;99.90
48454;DHT22;34261;55.678;12.464;2022-11-15T10:05:11;11.40;99.90
48454;DHT22;34261;55.678;12.464;2022-11-15T10:07:50;11.40;99.90
48454;DHT22;34261;55.678;12.464;2022-11-15T10:10:22;11.30;99.90
48454;DHT22;34261;55.678;12.464;2022-11-15T10:12:50;11.30;99.90
48454;DHT22;34261;55.678;12.464;2022-11-15T10:15:17;11.30;99.90
48454;DHT22;34261;55.678;12.464;2022-11-15T10:17:53;11.40;99.90
48454;DHT22;34261;55.678;12.464;2022-11-15T10:20:24;11.40;99.90
48454;DHT22;34261;55.678;12.464;2022-11-15T10:22:53;11.40;99.90
48454;DHT22;34261;55.678;12.464;2022-11-15T10:27:50;11.30;99.90
48454;DHT22;34261;55.678;12.464;2022-11-15T10:30:17;11.40;99.90
48454;DHT22;34261;55.678;12.464;2022-11-15T10:32:43;11.40;99.90
48454;DHT22;34261;55.678;12.464;2022-11-15T10:35:43;11.40;99.90
48454;DHT22;34261;55.678;12.464;2022-11-15T10:38:08;11.40;99.90
48454;DHT22;34261;55.678;12.464;2022-11-15T10:40:38;11.40;99.90
48454;DHT22;34261;55.678;12.464;2022-11-15T10:45:36;11.40;99.90
48454;DHT22;34261;55.678;12.464;2022-11-15T10:50:38;11.40;99.90
48454;DHT22;34261;55.678;12.464;2022-11-15T10:53:03;11.30;99.90
48454;DHT22;34261;55.678;12.464;2022-11-15T10:55:30;11.30;99.90
48454;DHT22;34261;55.678;12.464;2022-11-15T10:58:02;11.30;99.90
48454;DHT22;34261;55.678;12.464;2022-11-15T11:00:30;11.30;99.90
48454;DHT22;34261;55.678;12.464;2022-11-15T11:02:57;11.40;99.90
48454;DHT22;34261;55.678;12.464;2022-11-15T11:05:28;11.40;99.90
48454;DHT22;34261;55.678;12.464;2022-11-15T11:07:55;11.40;99.90
48454;DHT22;34261;55.678;12.464;2022-11-15T11:10:21;11.50;99.90
48454;DHT22;34261;55.678;12.464;2022-11-15T11:12:47;11.50;99.90
48454;DHT22;34261;55.678;12.464;2022-11-15T11:15:13;11.60;99.90
48454;DHT22;34261;55.678;12.464;2022-11-15T11:22:54;11.50;99.90
48454;DHT22;34261;55.678;12.464;2022-11-15T11:25:30;11.60;99.90
48454;DHT22;34261;55.678;12.464;2022-11-15T11:28:01;11.50;99.90
48454;DHT22;34261;55.678;12.464;2022-11-15T11:30:34;11.50;99.90
48454;DHT22;34261;55.678;12.464;2022-11-15T11:33:12;11.50;99.90
48454;DHT22;34261;55.678;12.464;2022-11-15T11:38:39;11.70;99.90
48454;DHT22;34261;55.678;12.464;2022-11-15T11:46:23;11.70;99.90
48454;DHT22;34261;55.678;12.464;2022-11-15T11:49:01;11.70;99.90
48454;DHT22;34261;55.678;12.464;2022-11-15T11:51:32;11.60;99.90
48454;DHT22;34261;55.678;12.464;2022-11-15T11:54:03;11.70;99.90
48454;DHT22;34261;55.678;12.464;2022-11-15T11:56:31;11.70;99.90
48454;DHT22;34261;55.678;12.464;2022-11-15T11:59:01;11.70;99.90
48454;DHT22;34261;55.678;12.464;2022-11-15T12:01:34;11.80;99.90
48454;DHT22;34261;55.678;12.464;2022-11-15T12:09:19;11.80;99.90
48454;DHT22;34261;55.678;12.464;2022-11-15T12:16:46;11.90;99.90
48454;DHT22;34261;55.678;12.464;2022-11-15T12:19:17;11.80;99.90
48454;DHT22;34261;55.678;12.464;2022-11-15T12:24:25;11.80;99.90
48454;DHT22;34261;55.678;12.464;2022-11-15T12:29:38;11.80;99.90
48454;DHT22;34261;55.678;12.464;2022-11-15T12:32:14;11.80;99.90
48454;DHT22;34261;55.678;12.464;2022-11-15T12:34:43;11.80;99.90
48454;DHT22;34261;55.678;12.464;2022-11-15T12:42:44;11.90;99.90
48454;DHT22;34261;55.678;12.464;2022-11-15T12:45:29;11.90;99.90
48454;DHT22;34261;55.678;12.464;2022-11-15T13:06:40;11.70;99.90
48454;DHT22;34261;55.678;12.464;2022-11-15T13:11:52;11.70;99.90
48454;DHT22;34261;55.678;12.464;2022-11-15T13:19:46;11.70;99.90
48454;DHT22;34261;55.678;12.464;2022-11-15T13:22:13;11.70;99.90
48454;DHT22;34261;55.678;12.464;2022-11-15T13:25:03;11.70;99.90
48454;DHT22;34261;55.678;12.464;2022-11-15T13:27:28;11.80;99.90
48454;DHT22;34261;55.678;12.464;2022-11-15T13:29:54;11.70;99.90
48454;DHT22;34261;55.678;12.464;2022-11-15T13:32:20;11.70;99.90
48454;DHT22;34261;55.678;12.464;2022-11-15T13:34:47;11.70;99.90
48454;DHT22;34261;55.678;12.464;2022-11-15T13:39:44;11.80;99.90
48454;DHT22;34261;55.678;12.464;2022-11-15T13:42:14;11.80;99.90
48454;DHT22;34261;55.678;12.464;2022-11-15T13:44:40;11.80;99.90
48454;DHT22;34261;55.678;12.464;2022-11-15T13:47:20;11.90;99.90
48454;DHT22;34261;55.678;12.464;2022-11-15T13:49:45;11.80;99.90
48454;DHT22;34261;55.678;12.464;2022-11-15T13:52:15;11.80;99.90
48454;DHT22;34261;55.678;12.464;2022-11-15T13:54:49;11.80;99.90
48454;DHT22;34261;55.678;12.464;2022-11-15T13:57:20;11.70;99.90
48454;DHT22;34261;55.678;12.464;2022-11-15T14:02:34;11.80;99.90
48454;DHT22;34261;55.678;12.464;2022-11-15T14:05:04;11.80;99.90
48454;DHT22;34261;55.678;12.464;2022-11-15T14:07:30;11.80;99.90
48454;DHT22;34261;55.678;12.464;2022-11-15T14:09:56;11.80;99.90
48454;DHT22;34261;55.678;12.464;2022-11-15T14:12:32;11.80;99.90
48454;DHT22;34261;55.678;12.464;2022-11-15T14:14:58;11.80;99.90
48454;DHT22;34261;55.678;12.464;2022-11-15T14:19:56;11.80;99.90
48454;DHT22;34261;55.678;12.464;2022-11-15T14:22:28;11.80;99.90
48454;DHT22;34261;55.678;12.464;2022-11-15T14:25:05;11.70;99.90
48454;DHT22;34261;55.678;12.464;2022-11-15T14:27:31;11.70;99.90
48454;DHT22;34261;55.678;12.464;2022-11-15T14:29:57;11.70;99.90
48454;DHT22;34261;55.678;12.464;2022-11-15T14:32:24;11.70;99.90
48454;DHT22;34261;55.678;12.464;2022-11-15T14:34:54;11.70;99.90
48454;DHT22;34261;55.678;12.464;2022-11-15T14:37:27;11.60;99.90
48454;DHT22;34261;55.678;12.464;2022-11-15T14:39:54;11.70;99.90
48454;DHT22;34261;55.678;12.464;2022-11-15T14:42:21;11.70;99.90
48454;DHT22;34261;55.678;12.464;2022-11-15T14:44:47;11.60;99.90
48454;DHT22;34261;55.678;12.464;2022-11-15T14:47:13;11.60;99.90
48454;DHT22;34261;55.678;12.464;2022-11-15T14:49:39;11.60;99.90
48454;DHT22;34261;55.678;12.464;2022-11-15T14:52:25;11.50;99.90
48454;DHT22;34261;55.678;12.464;2022-11-15T14:54:53;11.50;99.90
48454;DHT22;34261;55.678;12.464;2022-11-15T14:57:19;11.50;99.90
48454;DHT22;34261;55.678;12.464;2022-11-15T14:59:45;11.60;99.90
48454;DHT22;34261;55.678;12.464;2022-11-15T15:02:18;11.60;99.90
48454;DHT22;34261;55.678;12.464;2022-11-15T15:04:44;11.60;99.90
48454;DHT22;34261;55.678;12.464;2022-11-15T15:07:10;11.50;99.90
48454;DHT22;34261;55.678;12.464;2022-11-15T15:09:35;11.50;99.90
48454;DHT22;34261;55.678;12.464;2022-11-15T15:12:01;11.60;99.90
48454;DHT22;34261;55.678;12.464;2022-11-15T15:14:28;11.50;99.90
48454;DHT22;34261;55.678;12.464;2022-11-15T15:16:53;11.60;99.90
48454;DHT22;34261;55.678;12.464;2022-11-15T15:19:19;11.60;99.90
48454;DHT22;34261;55.678;12.464;2022-11-15T15:21:44;11.50;99.90
48454;DHT22;34261;55.678;12.464;2022-11-15T15:24:13;11.60;99.90
48454;DHT22;34261;55.678;12.464;2022-11-15T15:26:42;11.60;99.90
48454;DHT22;34261;55.678;12.464;2022-11-15T15:29:08;11.60;99.90
48454;DHT22;34261;55.678;12.464;2022-11-15T15:31:34;11.60;99.90
48454;DHT22;34261;55.678;12.464;2022-11-15T15:34:00;11.60;99.90
48454;DHT22;34261;55.678;12.464;2022-11-15T15:36:25;11.60;99.90
48454;DHT22;34261;55.678;12.464;2022-11-15T15:38:51;11.60;99.90
48454;DHT22;34261;55.678;12.464;2022-11-15T15:41:17;11.60;99.90
48454;DHT22;34261;55.678;12.464;2022-11-15T15:43:43;11.60;99.90
48454;DHT22;34261;55.678;12.464;2022-11-15T15:46:11;11.60;99.90
48454;DHT22;34261;55.678;12.464;2022-11-15T15:48:36;11.60;99.90
48454;DHT22;34261;55.678;12.464;2022-11-15T15:51:03;11.60;99.90
48454;DHT22;34261;55.678;12.464;2022-11-15T15:53:28;11.60;99.90
48454;DHT22;34261;55.678;12.464;2022-11-15T15:55:57;11.60;99.90
48454;DHT22;34261;55.678;12.464;2022-11-15T15:58:23;11.60;99.90
48454;DHT22;34261;55.678;12.464;2022-11-15T16:00:48;11.60;99.90
48454;DHT22;34261;55.678;12.464;2022-11-15T16:03:15;11.60;99.90
48454;DHT22;34261;55.678;12.464;2022-11-15T16:05:41;11.60;99.90
48454;DHT22;34261;55.678;12.464;2022-11-15T16:08:16;11.60;99.90
48454;DHT22;34261;55.678;12.464;2022-11-15T16:10:55;11.60;99.90
48454;DHT22;34261;55.678;12.464;2022-11-15T16:13:20;11.50;99.90
48454;DHT22;34261;55.678;12.464;2022-11-15T16:15:46;11.50;99.90
48454;DHT22;34261;55.678;12.464;2022-11-15T16:18:16;11.50;99.90
48454;DHT22;34261;55.678;12.464;2022-11-15T16:20:46;11.50;99.90
48454;DHT22;34261;55.678;12.464;2022-11-15T16:23:15;11.50;99.90
48454;DHT22;34261;55.678;12.464;2022-11-15T16:25:45;11.50;99.90
48454;DHT22;34261;55.678;12.464;2022-11-15T16:28:14;11.50;99.90
48454;DHT22;34261;55.678;12.464;2022-11-15T16:30:41;11.50;99.90
48454;DHT22;34261;55.678;12.464;2022-11-15T16:33:07;11.60;99.90
48454;DHT22;34261;55.678;12.464;2022-11-15T16:35:32;11.50;99.90
48454;DHT22;34261;55.678;12.464;2022-11-15T16:37:57;11.50;99.90
48454;DHT22;34261;55.678;12.464;2022-11-15T16:40:33;11.50;99.90
48454;DHT22;34261;55.678;12.464;2022-11-15T16:43:00;11.50;99.90
48454;DHT22;34261;55.678;12.464;2022-11-15T16:45:27;11.50;99.90
48454;DHT22;34261;55.678;12.464;2022-11-15T16:47:53;11.50;99.90
48454;DHT22;34261;55.678;12.464;2022-11-15T16:50:28;11.50;99.90
48454;DHT22;34261;55.678;12.464;2022-11-15T16:52:55;11.60;99.90
48454;DHT22;34261;55.678;12.464;2022-11-15T16:55:21;11.50;99.90
48454;DHT22;34261;55.678;12.464;2022-11-15T16:57:47;11.50;99.90
48454;DHT22;34261;55.678;12.464;2022-11-15T17:00:14;11.50;99.90